createdAt,value
2018-12-20T00:00:31.751Z,214.15
2018-12-20T00:01:31.820Z,214.19
2018-12-20T00:02:31.886Z,214.14
2018-12-20T00:03:32.113Z,214.18
2018-12-20T00:04:32.125Z,214.22
2018-12-20T00:05:32.128Z,214.21
2018-12-20T00:06:32.349Z,214.15
2018-12-20T00:07:32.374Z,214.16
2018-12-20T00:08:32.537Z,214.19
2018-12-20T00:09:32.461Z,214.19
2018-12-20T00:10:32.535Z,214.16
2018-12-20T00:11:32.787Z,214.21
2018-12-20T00:12:32.663Z,214.22
2018-12-20T00:13:32.804Z,214.21
2018-12-20T00:14:32.825Z,214.16
2018-12-20T00:15:32.913Z,214.20
2018-12-20T00:16:33.028Z,214.21
2018-12-20T00:17:33.109Z,214.22
2018-12-20T00:18:33.236Z,214.14
2018-12-20T00:19:33.367Z,214.19
2018-12-20T00:20:33.291Z,214.21
2018-12-20T00:21:33.376Z,214.21
2018-12-20T00:22:33.455Z,214.18
2018-12-20T00:23:33.537Z,214.18
2018-12-20T00:24:33.596Z,214.18
2018-12-20T00:25:33.671Z,214.15
2018-12-20T00:26:33.772Z,214.18
2018-12-20T00:27:33.898Z,214.22
2018-12-20T00:28:33.986Z,214.14
2018-12-20T00:29:33.986Z,214.18
2018-12-20T00:30:34.104Z,214.07
2018-12-20T00:31:34.158Z,214.19
2018-12-20T00:32:34.254Z,214.18
2018-12-20T00:33:34.408Z,214.18
2018-12-20T00:34:34.723Z,214.20
2018-12-20T00:35:34.723Z,214.20
2018-12-20T00:36:34.840Z,214.19
2018-12-20T00:37:34.934Z,214.13
2018-12-20T00:38:35.011Z,214.22
2018-12-20T00:39:35.115Z,214.18
2018-12-20T00:40:35.115Z,214.13
2018-12-20T00:41:35.283Z,214.13
2018-12-20T00:42:35.243Z,214.21
2018-12-20T00:43:35.329Z,214.20
2018-12-20T00:44:37.492Z,214.18
2018-12-20T00:45:35.544Z,214.22
2018-12-20T00:46:35.570Z,214.21
2018-12-20T00:47:35.633Z,214.18
2018-12-20T00:48:35.769Z,214.18
2018-12-20T00:49:35.914Z,214.18
2018-12-20T00:50:35.873Z,214.21
2018-12-20T00:51:35.980Z,214.16
2018-12-20T00:52:40.644Z,214.20
2018-12-20T00:53:36.155Z,214.23
2018-12-20T00:54:36.217Z,214.20
2018-12-20T00:55:36.268Z,214.20
2018-12-20T00:56:36.442Z,214.20
2018-12-20T00:57:36.463Z,214.27
2018-12-20T00:58:36.552Z,214.23
2018-12-20T00:59:36.654Z,214.20
2018-12-20T01:00:37.587Z,265.85
2018-12-20T01:01:36.829Z,262.39
2018-12-20T01:02:36.771Z,265.86
2018-12-20T01:03:36.849Z,261.87
2018-12-20T01:04:37.046Z,263.24
2018-12-20T01:05:37.021Z,262.06
2018-12-20T01:06:37.175Z,263.67
2018-12-20T01:07:37.350Z,261.67
2018-12-20T01:08:37.385Z,265.58
2018-12-20T01:09:37.422Z,265.36
2018-12-20T01:10:37.434Z,261.68
2018-12-20T01:11:37.493Z,265.32
2018-12-20T01:12:37.612Z,262.08
2018-12-20T01:13:37.618Z,262.47
2018-12-20T01:14:45.078Z,263.07
2018-12-20T01:15:38.797Z,267.07
2018-12-20T01:16:37.900Z,265.02
2018-12-20T01:17:38.030Z,266.19
2018-12-20T01:18:38.028Z,264.95
2018-12-20T01:19:38.102Z,262.46
2018-12-20T01:20:38.193Z,264.31
2018-12-20T01:21:38.315Z,261.74
2018-12-20T01:22:38.473Z,265.67
2018-12-20T01:23:38.463Z,263.31
2018-12-20T01:24:38.582Z,265.47
2018-12-20T01:25:38.778Z,262.12
2018-12-20T01:26:38.735Z,266.00
2018-12-20T01:27:38.745Z,263.17
2018-12-20T01:28:38.858Z,262.44
2018-12-20T01:29:39.036Z,261.46
2018-12-20T01:30:38.923Z,262.12
2018-12-20T01:31:39.047Z,261.84
2018-12-20T01:32:39.103Z,261.97
2018-12-20T01:33:39.281Z,265.16
2018-12-20T01:34:39.399Z,262.62
2018-12-20T01:35:39.464Z,266.39
2018-12-20T01:36:39.526Z,263.52
2018-12-20T01:37:39.522Z,265.50
2018-12-20T01:38:39.709Z,262.19
2018-12-20T01:39:39.929Z,264.12
2018-12-20T01:40:39.791Z,264.71
2018-12-20T01:41:39.980Z,263.26
2018-12-20T01:42:40.061Z,261.46
2018-12-20T01:43:39.975Z,266.08
2018-12-20T01:44:40.183Z,264.76
2018-12-20T01:45:40.093Z,261.37
2018-12-20T01:46:40.314Z,262.53
2018-12-20T01:47:40.231Z,263.60
2018-12-20T01:48:40.345Z,265.31
2018-12-20T01:49:40.614Z,265.47
2018-12-20T01:50:40.484Z,262.54
2018-12-20T01:51:40.601Z,263.91
2018-12-20T01:52:40.800Z,263.59
2018-12-20T01:53:40.887Z,264.79
2018-12-20T01:54:40.933Z,265.45
2018-12-20T01:55:40.902Z,265.74
2018-12-20T01:56:40.977Z,262.30
2018-12-20T01:57:41.187Z,261.42
2018-12-20T01:58:41.202Z,265.20
2018-12-20T01:59:41.253Z,264.19
2018-12-20T02:00:41.328Z,264.84
2018-12-20T02:01:41.366Z,261.75
2018-12-20T02:02:41.608Z,264.07
2018-12-20T02:03:41.599Z,261.32
2018-12-20T02:04:41.705Z,261.87
2018-12-20T02:05:41.811Z,261.52
2018-12-20T02:06:42.025Z,263.13
2018-12-20T02:07:41.886Z,265.23
2018-12-20T02:08:41.909Z,261.96
2018-12-20T02:09:42.054Z,265.34
2018-12-20T02:10:42.100Z,263.50
2018-12-20T02:11:42.181Z,261.06
2018-12-20T02:12:42.629Z,262.91
2018-12-20T02:13:42.371Z,263.28
2018-12-20T02:14:42.529Z,265.57
2018-12-20T02:15:42.479Z,263.20
2018-12-20T02:16:42.566Z,262.32
2018-12-20T02:17:42.690Z,261.47
2018-12-20T02:18:42.713Z,261.54
2018-12-20T02:19:42.839Z,263.62
2018-12-20T02:20:42.851Z,265.09
2018-12-20T02:21:43.052Z,265.47
2018-12-20T02:22:43.147Z,262.18
2018-12-20T02:23:43.111Z,264.16
2018-12-20T02:24:43.389Z,263.96
2018-12-20T02:25:43.447Z,264.11
2018-12-20T02:26:43.351Z,261.35
2018-12-20T02:27:43.438Z,265.16
2018-12-20T02:28:43.538Z,263.34
2018-12-20T02:29:43.622Z,261.90
2018-12-20T02:30:43.900Z,262.32
2018-12-20T02:31:43.989Z,265.06
2018-12-20T02:32:43.839Z,263.73
2018-12-20T02:33:44.109Z,262.09
2018-12-20T02:34:44.179Z,261.63
2018-12-20T02:35:44.221Z,263.56
2018-12-20T02:36:44.291Z,266.09
2018-12-20T02:37:44.238Z,264.47
2018-12-20T02:38:44.300Z,260.54
2018-12-20T02:39:44.503Z,265.45
2018-12-20T02:40:44.692Z,263.22
2018-12-20T02:41:44.555Z,262.04
2018-12-20T02:42:44.982Z,266.22
2018-12-20T02:43:44.940Z,262.87
2018-12-20T02:44:44.896Z,263.56
2018-12-20T02:45:44.854Z,262.20
2018-12-20T02:46:45.035Z,262.39
2018-12-20T02:47:45.223Z,265.06
2018-12-20T02:48:45.105Z,264.58
2018-12-20T02:49:45.166Z,266.04
2018-12-20T02:50:45.374Z,264.08
2018-12-20T02:51:45.569Z,264.01
2018-12-20T02:52:45.592Z,262.45
2018-12-20T02:53:45.461Z,264.77
2018-12-20T02:54:45.770Z,261.03
2018-12-20T02:55:45.720Z,263.34
2018-12-20T02:56:45.775Z,264.74
2018-12-20T02:57:45.852Z,263.04
2018-12-20T02:58:45.958Z,261.80
2018-12-20T02:59:45.950Z,262.10
2018-12-20T03:00:46.252Z,264.26
2018-12-20T03:01:46.247Z,264.65
2018-12-20T03:02:46.257Z,265.74
2018-12-20T03:03:46.356Z,261.29
2018-12-20T03:04:46.311Z,264.46
2018-12-20T03:05:46.554Z,265.81
2018-12-20T03:06:46.641Z,265.85
2018-12-20T03:07:46.809Z,262.11
2018-12-20T03:08:46.665Z,261.17
2018-12-20T03:09:46.938Z,264.84
2018-12-20T03:10:46.979Z,261.31
2018-12-20T03:11:46.953Z,265.03
2018-12-20T03:12:47.386Z,263.64
2018-12-20T03:13:47.238Z,261.63
2018-12-20T03:14:47.150Z,264.61
2018-12-20T03:15:47.458Z,265.44
2018-12-20T03:16:47.272Z,262.65
2018-12-20T03:17:47.420Z,265.88
2018-12-20T03:18:47.514Z,265.54
2018-12-20T03:19:47.669Z,263.87
2018-12-20T03:20:47.801Z,266.34
2018-12-20T03:21:47.666Z,262.23
2018-12-20T03:22:47.801Z,262.50
2018-12-20T03:23:47.823Z,262.13
2018-12-20T03:24:47.926Z,214.40
2018-12-20T03:25:48.156Z,214.30
2018-12-20T03:26:48.042Z,214.34
2018-12-20T03:27:48.261Z,214.37
2018-12-20T03:28:48.375Z,214.29
2018-12-20T03:29:48.507Z,214.37
2018-12-20T03:30:48.436Z,214.42
2018-12-20T03:31:48.435Z,214.41
2018-12-20T03:32:48.566Z,214.37
2018-12-20T03:33:49.018Z,214.40
2018-12-20T03:34:48.831Z,214.42
2018-12-20T03:35:48.955Z,214.36
2018-12-20T03:36:48.936Z,214.36
2018-12-20T03:37:48.973Z,214.32
2018-12-20T03:38:49.290Z,214.33
2018-12-20T03:39:49.278Z,214.32
2018-12-20T03:40:49.350Z,214.43
2018-12-20T03:41:49.325Z,214.36
2018-12-20T03:42:49.625Z,214.42
2018-12-20T03:43:49.501Z,214.37
2018-12-20T03:44:49.524Z,214.35
2018-12-20T03:45:49.724Z,214.33
2018-12-20T03:46:49.630Z,214.41
2018-12-20T03:47:49.786Z,214.34
2018-12-20T03:48:49.795Z,214.29
2018-12-20T03:49:50.062Z,214.34
2018-12-20T03:50:50.172Z,214.37
2018-12-20T03:51:50.271Z,214.30
2018-12-20T03:52:50.269Z,214.33
2018-12-20T03:53:50.294Z,214.34
2018-12-20T03:54:50.247Z,214.29
2018-12-20T03:55:50.439Z,214.35
2018-12-20T03:56:50.443Z,214.35
2018-12-20T03:57:50.515Z,214.28
2018-12-20T03:58:50.700Z,214.32
2018-12-20T03:59:50.738Z,214.33
2018-12-20T04:00:50.779Z,214.35
2018-12-20T04:01:50.957Z,214.37
2018-12-20T04:02:51.065Z,214.30
2018-12-20T04:03:51.003Z,214.33
2018-12-20T04:04:51.086Z,214.33
2018-12-20T04:05:51.409Z,214.42
2018-12-20T04:06:52.110Z,214.46
2018-12-20T04:07:51.411Z,214.44
2018-12-20T04:08:51.480Z,214.37
2018-12-20T04:09:51.782Z,214.42
2018-12-20T04:10:51.573Z,214.38
2018-12-20T04:11:51.621Z,214.34
2018-12-20T04:12:52.243Z,214.33
2018-12-20T04:13:51.812Z,214.36
2018-12-20T04:14:51.876Z,214.41
2018-12-20T04:15:52.099Z,214.41
2018-12-20T04:16:52.098Z,214.38
2018-12-20T04:17:52.403Z,214.42
2018-12-20T04:18:52.343Z,214.40
2018-12-20T04:19:52.259Z,214.35
2018-12-20T04:20:52.339Z,214.35
2018-12-20T04:21:52.453Z,214.43
2018-12-20T04:22:52.499Z,214.37
2018-12-20T04:23:52.564Z,214.35
2018-12-20T04:24:52.668Z,214.38
2018-12-20T04:25:52.760Z,214.40
2018-12-20T04:26:52.862Z,214.35
2018-12-20T04:27:52.921Z,214.43
2018-12-20T04:28:52.969Z,214.41
2018-12-20T04:29:53.040Z,214.44
2018-12-20T04:30:53.286Z,214.42
2018-12-20T04:31:53.222Z,214.41
2018-12-20T04:32:53.250Z,214.41
2018-12-20T04:33:53.518Z,214.42
2018-12-20T04:34:53.529Z,214.41
2018-12-20T04:35:53.746Z,214.42
2018-12-20T04:36:53.586Z,214.42
2018-12-20T04:37:53.702Z,214.35
2018-12-20T04:38:53.888Z,214.33
2018-12-20T04:39:53.967Z,214.42
2018-12-20T04:40:54.205Z,214.38
2018-12-20T04:41:53.955Z,214.40
2018-12-20T04:42:54.155Z,214.40
2018-12-20T04:43:54.460Z,214.32
2018-12-20T04:44:54.166Z,214.35
2018-12-20T04:45:54.447Z,214.37
2018-12-20T04:46:54.596Z,214.33
2018-12-20T04:47:54.443Z,214.36
2018-12-20T04:48:54.519Z,214.32
2018-12-20T04:49:54.630Z,214.28
2018-12-20T04:50:54.796Z,214.33
2018-12-20T04:51:54.714Z,214.34
2018-12-20T04:52:54.998Z,214.35
2018-12-20T04:53:55.092Z,214.33
2018-12-20T04:54:55.119Z,214.33
2018-12-20T04:55:55.094Z,214.30
2018-12-20T04:56:55.114Z,214.30
2018-12-20T04:57:55.585Z,214.34
2018-12-20T04:58:55.495Z,214.35
2018-12-20T04:59:55.484Z,214.32
2018-12-20T05:00:55.752Z,214.26
2018-12-20T05:01:55.471Z,214.29
2018-12-20T05:02:55.853Z,214.30
2018-12-20T05:03:56.075Z,214.29
2018-12-20T05:04:55.966Z,214.29
2018-12-20T05:05:55.826Z,214.32
2018-12-20T05:06:55.942Z,214.30
2018-12-20T05:07:56.163Z,214.32
2018-12-20T05:08:56.091Z,214.28
2018-12-20T05:09:56.322Z,214.30
2018-12-20T05:10:56.314Z,214.30
2018-12-20T05:11:56.551Z,214.34
2018-12-20T05:12:56.378Z,214.34
2018-12-20T05:13:56.494Z,214.33
2018-12-20T05:14:56.549Z,214.32
2018-12-20T05:15:56.906Z,214.28
2018-12-20T05:16:56.780Z,214.30
2018-12-20T05:17:56.772Z,214.29
2018-12-20T05:18:56.976Z,214.29
2018-12-20T05:19:56.991Z,214.37
2018-12-20T05:20:57.202Z,214.35
2018-12-20T05:21:57.119Z,214.26
2018-12-20T05:22:57.208Z,214.29
2018-12-20T05:23:57.466Z,214.26
2018-12-20T05:24:57.320Z,214.27
2018-12-20T05:25:57.479Z,214.28
2018-12-20T05:26:57.495Z,264.05
2018-12-20T05:27:57.573Z,262.27
2018-12-20T05:28:57.931Z,263.70
2018-12-20T05:29:57.693Z,266.15
2018-12-20T05:30:57.792Z,266.12
2018-12-20T05:31:58.130Z,265.73
2018-12-20T05:32:58.038Z,263.17
2018-12-20T05:33:58.139Z,262.34
2018-12-20T05:34:58.268Z,264.55
2018-12-20T05:35:58.334Z,263.72
2018-12-20T05:36:58.275Z,264.92
2018-12-20T05:37:58.536Z,261.01
2018-12-20T05:38:58.601Z,265.89
2018-12-20T05:39:58.568Z,262.03
2018-12-20T05:40:58.632Z,262.98
2018-12-20T05:41:58.677Z,262.13
2018-12-20T05:42:58.779Z,262.99
2018-12-20T05:43:59.224Z,263.96
2018-12-20T05:44:59.086Z,262.23
2018-12-20T05:46:04.483Z,262.12
2018-12-20T05:47:00.183Z,263.65
2018-12-20T05:47:59.353Z,262.99
2018-12-20T05:48:59.559Z,261.76
2018-12-20T05:49:59.318Z,264.16
2018-12-20T05:50:59.427Z,264.81
2018-12-20T05:51:59.474Z,262.05
2018-12-20T05:52:59.535Z,264.53
2018-12-20T05:53:59.646Z,265.12
2018-12-20T05:54:59.845Z,266.39
2018-12-20T05:55:59.809Z,263.85
2018-12-20T05:57:00.101Z,262.39
2018-12-20T05:57:59.979Z,266.60
2018-12-20T05:59:00.028Z,265.74
2018-12-20T06:00:00.092Z,264.35
2018-12-20T06:01:00.181Z,265.61
2018-12-20T06:02:00.462Z,266.12
2018-12-20T06:03:00.347Z,262.01
2018-12-20T06:04:00.401Z,263.88
2018-12-20T06:05:00.801Z,265.67
2018-12-20T06:06:00.736Z,261.83
2018-12-20T06:07:00.653Z,264.25
2018-12-20T06:08:00.747Z,263.56
2018-12-20T06:09:00.866Z,264.10
2018-12-20T06:10:00.889Z,262.66
2018-12-20T06:11:00.983Z,262.57
2018-12-20T06:12:01.408Z,265.22
2018-12-20T06:13:01.254Z,265.92
2018-12-20T06:14:01.214Z,266.38
2018-12-20T06:15:01.268Z,266.24
2018-12-20T06:16:01.589Z,262.88
2018-12-20T06:17:01.479Z,261.93
2018-12-20T06:18:01.514Z,266.04
2018-12-20T06:19:01.802Z,263.38
2018-12-20T06:20:01.772Z,262.14
2018-12-20T06:21:01.793Z,264.86
2018-12-20T06:22:01.895Z,266.28
2018-12-20T06:23:02.205Z,266.16
2018-12-20T06:24:01.996Z,265.38
2018-12-20T06:25:02.090Z,265.70
2018-12-20T06:26:02.134Z,262.69
2018-12-20T06:27:02.244Z,261.38
2018-12-20T06:28:02.332Z,266.25
2018-12-20T06:29:02.410Z,262.39
2018-12-20T06:30:02.637Z,265.12
2018-12-20T06:31:02.572Z,265.20
2018-12-20T06:32:02.683Z,264.44
2018-12-20T06:33:02.760Z,265.15
2018-12-20T06:34:02.822Z,262.92
2018-12-20T06:35:02.915Z,266.16
2018-12-20T06:36:02.967Z,265.45
2018-12-20T06:37:03.047Z,266.30
2018-12-20T06:38:03.263Z,265.75
2018-12-20T06:39:03.240Z,262.47
2018-12-20T06:40:03.319Z,264.92
2018-12-20T06:41:03.379Z,265.54
2018-12-20T06:42:03.448Z,262.10
2018-12-20T06:43:03.555Z,263.61
2018-12-20T06:44:07.106Z,263.56
2018-12-20T06:45:03.706Z,264.47
2018-12-20T06:46:03.849Z,262.86
2018-12-20T06:47:03.848Z,261.70
2018-12-20T06:48:03.899Z,266.01
2018-12-20T06:49:03.998Z,264.40
2018-12-20T06:50:04.082Z,263.28
2018-12-20T06:51:04.144Z,265.44
2018-12-20T06:52:04.242Z,262.41
2018-12-20T06:53:08.189Z,265.32
2018-12-20T06:54:04.433Z,261.26
2018-12-20T06:55:04.457Z,266.28
2018-12-20T06:56:04.536Z,264.07
2018-12-20T06:57:04.613Z,265.77
2018-12-20T06:58:04.677Z,262.84
2018-12-20T06:59:04.767Z,264.55
2018-12-20T07:00:04.835Z,266.36
2018-12-20T07:01:04.906Z,265.63
2018-12-20T07:02:05.053Z,264.59
2018-12-20T07:03:05.139Z,261.95
2018-12-20T07:04:05.167Z,261.39
2018-12-20T07:05:05.246Z,263.42
2018-12-20T07:06:05.292Z,265.86
2018-12-20T07:07:05.642Z,265.82
2018-12-20T07:08:05.474Z,265.56
2018-12-20T07:09:05.541Z,262.49
2018-12-20T07:10:05.649Z,265.68
2018-12-20T07:11:05.799Z,265.68
2018-12-20T07:12:05.792Z,264.93
2018-12-20T07:13:05.866Z,262.79
2018-12-20T07:14:05.945Z,262.49
2018-12-20T07:15:06.014Z,266.15
2018-12-20T07:16:06.080Z,265.13
2018-12-20T07:17:06.146Z,264.74
2018-12-20T07:18:06.236Z,261.69
2018-12-20T07:19:06.462Z,264.09
2018-12-20T07:20:06.414Z,261.61
2018-12-20T07:21:06.465Z,264.74
2018-12-20T07:22:06.545Z,263.01
2018-12-20T07:23:06.689Z,263.97
2018-12-20T07:24:06.728Z,263.62
2018-12-20T07:25:06.822Z,263.66
2018-12-20T07:26:06.882Z,263.84
2018-12-20T07:27:07.018Z,263.08
2018-12-20T07:28:07.060Z,263.72
2018-12-20T07:29:07.138Z,263.48
2018-12-20T07:30:07.231Z,262.59
2018-12-20T07:31:07.292Z,264.82
2018-12-20T07:32:07.370Z,262.85
2018-12-20T07:33:07.484Z,266.59
2018-12-20T07:34:07.528Z,262.89
2018-12-20T07:35:07.877Z,262.82
2018-12-20T07:36:07.648Z,265.25
2018-12-20T07:37:07.732Z,262.06
2018-12-20T07:38:07.825Z,262.59
2018-12-20T07:39:07.910Z,265.78
2018-12-20T07:40:07.980Z,261.64
2018-12-20T07:41:08.065Z,266.02
2018-12-20T07:42:08.140Z,261.91
2018-12-20T07:43:08.261Z,262.05
2018-12-20T07:44:08.331Z,263.44
2018-12-20T07:45:08.389Z,263.87
2018-12-20T07:46:08.465Z,264.54
2018-12-20T07:47:08.539Z,262.21
2018-12-20T07:48:08.633Z,263.90
2018-12-20T07:49:08.702Z,262.35
2018-12-20T07:50:08.791Z,261.72
2018-12-20T07:51:08.852Z,262.86
2018-12-20T07:52:09.025Z,265.99
2018-12-20T07:53:09.122Z,263.11
2018-12-20T07:54:09.093Z,263.97
2018-12-20T07:55:09.169Z,263.44
2018-12-20T07:56:09.209Z,262.99
2018-12-20T07:57:09.311Z,265.70
2018-12-20T07:58:09.413Z,265.70
2018-12-20T07:59:09.494Z,263.76
2018-12-20T08:00:09.652Z,262.96
2018-12-20T08:01:09.726Z,262.14
2018-12-20T08:02:09.825Z,262.73
2018-12-20T08:03:09.928Z,263.21
2018-12-20T08:04:10.014Z,265.70
2018-12-20T08:05:10.097Z,261.67
2018-12-20T08:06:10.140Z,214.43
2018-12-20T08:07:10.232Z,214.43
2018-12-20T08:08:10.384Z,263.64
2018-12-20T08:09:10.413Z,262.62
2018-12-20T08:10:10.508Z,214.32
2018-12-20T08:11:10.583Z,214.33
2018-12-20T08:12:10.640Z,262.74
2018-12-20T08:13:10.835Z,266.12
2018-12-20T08:14:10.858Z,265.81
2018-12-20T08:15:10.936Z,263.25
2018-12-20T08:16:11.081Z,265.93
2018-12-20T08:17:11.072Z,266.54
2018-12-20T08:18:11.159Z,265.19
2018-12-20T08:19:11.265Z,264.37
2018-12-20T08:20:11.350Z,265.28
2018-12-20T08:21:11.421Z,264.29
2018-12-20T08:22:11.506Z,263.30
2018-12-20T08:23:11.604Z,263.08
2018-12-20T08:24:11.699Z,262.46
2018-12-20T08:25:11.850Z,265.11
2018-12-20T08:26:11.843Z,261.22
2018-12-20T08:27:11.923Z,265.85
2018-12-20T08:28:12.027Z,261.81
2018-12-20T08:29:12.090Z,265.12
2018-12-20T08:30:12.192Z,262.21
2018-12-20T08:31:12.261Z,265.63
2018-12-20T08:32:12.356Z,265.39
2018-12-20T08:33:12.570Z,263.87
2018-12-20T08:34:12.461Z,263.27
2018-12-20T08:35:12.511Z,265.01
2018-12-20T08:36:12.624Z,264.76
2018-12-20T08:37:12.694Z,265.69
2018-12-20T08:38:12.809Z,263.86
2018-12-20T08:39:12.872Z,265.86
2018-12-20T08:40:12.937Z,260.92
2018-12-20T08:41:13.372Z,261.54
2018-12-20T08:42:13.161Z,265.88
2018-12-20T08:43:13.265Z,265.74
2018-12-20T08:44:13.329Z,263.67
2018-12-20T08:45:13.643Z,265.84
2018-12-20T08:46:13.762Z,261.81
2018-12-20T08:47:13.828Z,266.25
2018-12-20T08:48:13.931Z,265.37
2018-12-20T08:49:14.035Z,265.47
2018-12-20T08:50:14.142Z,263.44
2018-12-20T08:51:14.170Z,265.53
2018-12-20T08:52:14.256Z,261.77
2018-12-20T08:53:14.354Z,264.07
2018-12-20T08:54:14.432Z,265.34
2018-12-20T08:55:14.501Z,263.28
2018-12-20T08:56:14.609Z,262.32
2018-12-20T08:57:14.716Z,261.51
2018-12-20T08:58:14.782Z,261.93
2018-12-20T08:59:14.864Z,262.96
2018-12-20T09:00:14.936Z,261.49
2018-12-20T09:01:15.030Z,263.31
2018-12-20T09:02:15.068Z,262.34
2018-12-20T09:03:15.205Z,264.94
2018-12-20T09:04:15.285Z,265.06
2018-12-20T09:05:15.363Z,264.07
2018-12-20T09:06:15.575Z,262.83
2018-12-20T09:07:15.500Z,265.08
2018-12-20T09:08:15.616Z,265.13
2018-12-20T09:09:15.708Z,264.29
2018-12-20T09:10:15.768Z,261.58
2018-12-20T09:11:15.870Z,263.50
2018-12-20T09:12:15.933Z,265.05
2018-12-20T09:13:16.012Z,260.47
2018-12-20T09:14:16.328Z,262.58
2018-12-20T09:15:16.188Z,261.96
2018-12-20T09:16:16.288Z,262.49
2018-12-20T09:17:16.343Z,262.24
2018-12-20T09:18:16.442Z,261.42
2018-12-20T09:19:16.527Z,264.12
2018-12-20T09:20:16.627Z,262.39
2018-12-20T09:21:16.711Z,264.60
2018-12-20T09:22:16.841Z,263.36
2018-12-20T09:23:16.846Z,261.38
2018-12-20T09:24:16.954Z,264.77
2018-12-20T09:25:17.034Z,261.42
2018-12-20T09:26:17.133Z,262.46
2018-12-20T09:27:17.202Z,264.64
2018-12-20T09:28:17.303Z,264.11
2018-12-20T09:29:17.393Z,265.66
2018-12-20T09:30:17.499Z,264.92
2018-12-20T09:31:17.541Z,263.91
2018-12-20T09:32:17.613Z,261.42
2018-12-20T09:33:17.710Z,264.31
2018-12-20T09:34:17.785Z,262.32
2018-12-20T09:35:17.860Z,264.40
2018-12-20T09:36:17.971Z,263.19
2018-12-20T09:37:18.054Z,261.93
2018-12-20T09:38:18.153Z,261.25
2018-12-20T09:39:18.285Z,266.58
2018-12-20T09:40:18.296Z,262.50
2018-12-20T09:41:18.410Z,261.49
2018-12-20T09:42:18.493Z,264.01
2018-12-20T09:43:18.574Z,262.49
2018-12-20T09:44:18.676Z,264.55
2018-12-20T09:45:18.776Z,263.66
2018-12-20T09:46:19.027Z,263.62
2018-12-20T09:47:19.019Z,261.38
2018-12-20T09:48:19.014Z,265.87
2018-12-20T09:49:19.125Z,265.13
2018-12-20T09:50:19.209Z,260.92
2018-12-20T09:51:19.287Z,262.94
2018-12-20T09:52:19.348Z,263.55
2018-12-20T09:53:19.447Z,260.31
2018-12-20T09:54:19.552Z,264.25
2018-12-20T09:55:19.737Z,262.56
2018-12-20T09:56:19.703Z,265.74
2018-12-20T09:57:19.787Z,266.92
2018-12-20T09:58:19.888Z,262.16
2018-12-20T09:59:19.988Z,265.03
2018-12-20T10:00:20.070Z,262.01
2018-12-20T10:01:20.157Z,264.90
2018-12-20T10:02:20.223Z,261.04
2018-12-20T10:03:20.333Z,264.66
2018-12-20T10:04:20.408Z,265.01
2018-12-20T10:05:20.465Z,262.68
2018-12-20T10:06:20.579Z,263.45
2018-12-20T10:07:20.634Z,260.90
2018-12-20T10:08:20.710Z,264.63
2018-12-20T10:09:20.820Z,263.97
2018-12-20T10:10:20.920Z,260.23
2018-12-20T10:11:21.092Z,263.93
2018-12-20T10:12:21.050Z,260.86
2018-12-20T10:13:21.138Z,262.40
2018-12-20T10:14:21.222Z,264.46
2018-12-20T10:15:21.326Z,264.71
2018-12-20T10:16:21.408Z,264.69
2018-12-20T10:17:21.482Z,264.16
2018-12-20T10:18:21.557Z,263.86
2018-12-20T10:19:21.703Z,260.46
2018-12-20T10:20:21.800Z,260.28
2018-12-20T10:21:21.999Z,259.71
2018-12-20T10:22:21.901Z,260.07
2018-12-20T10:23:21.979Z,264.28
2018-12-20T10:24:22.309Z,263.61
2018-12-20T10:25:22.160Z,259.69
2018-12-20T10:26:22.236Z,259.91
2018-12-20T10:27:22.319Z,261.28
2018-12-20T10:28:22.486Z,263.42
2018-12-20T10:29:22.501Z,264.02
2018-12-20T10:30:22.568Z,261.61
2018-12-20T10:31:22.669Z,212.79
2018-12-20T10:32:22.749Z,212.81
2018-12-20T10:33:22.833Z,212.83
2018-12-20T10:34:22.935Z,212.78
2018-12-20T10:35:23.023Z,212.83
2018-12-20T10:36:23.200Z,212.81
2018-12-20T10:37:23.163Z,212.79
2018-12-20T10:38:23.251Z,212.78
2018-12-20T10:39:23.461Z,212.84
2018-12-20T10:40:23.435Z,212.78
2018-12-20T10:41:23.489Z,212.81
2018-12-20T10:42:23.571Z,212.79
2018-12-20T10:43:23.673Z,212.79
2018-12-20T10:44:23.828Z,212.73
2018-12-20T10:45:23.840Z,212.78
2018-12-20T10:46:23.915Z,212.79
2018-12-20T10:47:28.876Z,212.77
2018-12-20T10:48:25.068Z,212.74
2018-12-20T10:49:24.185Z,212.69
2018-12-20T10:50:24.272Z,212.76
2018-12-20T10:51:24.332Z,212.76
2018-12-20T10:52:24.474Z,212.69
2018-12-20T10:53:24.493Z,212.67
2018-12-20T10:54:24.624Z,212.69
2018-12-20T10:55:24.708Z,212.71
2018-12-20T10:56:24.777Z,212.68
2018-12-20T10:57:24.876Z,212.67
2018-12-20T10:58:24.944Z,212.63
2018-12-20T10:59:25.033Z,212.61
2018-12-20T11:00:25.137Z,212.61
2018-12-20T11:01:25.300Z,212.55
2018-12-20T11:02:25.298Z,212.59
2018-12-20T11:03:25.365Z,212.59
2018-12-20T11:04:25.479Z,212.59
2018-12-20T11:05:25.555Z,212.53
2018-12-20T11:06:25.636Z,212.46
2018-12-20T11:07:25.736Z,212.43
2018-12-20T11:08:25.803Z,212.44
2018-12-20T11:09:26.003Z,212.53
2018-12-20T11:10:25.985Z,212.51
2018-12-20T11:11:26.053Z,212.44
2018-12-20T11:12:26.156Z,212.43
2018-12-20T11:13:26.230Z,212.43
2018-12-20T11:14:26.331Z,212.46
2018-12-20T11:15:26.399Z,212.46
2018-12-20T11:16:26.482Z,212.49
2018-12-20T11:17:26.670Z,212.49
2018-12-20T11:18:26.651Z,212.48
2018-12-20T11:19:26.762Z,212.41
2018-12-20T11:20:26.827Z,212.49
2018-12-20T11:21:26.893Z,212.45
2018-12-20T11:22:27.018Z,212.43
2018-12-20T11:23:27.081Z,212.42
2018-12-20T11:24:27.178Z,212.41
2018-12-20T11:25:27.301Z,212.48
2018-12-20T11:26:27.288Z,212.43
2018-12-20T11:27:27.419Z,212.40
2018-12-20T11:28:27.505Z,212.35
2018-12-20T11:29:27.599Z,212.40
2018-12-20T11:30:27.675Z,212.41
2018-12-20T11:31:27.761Z,212.42
2018-12-20T11:32:27.834Z,212.42
2018-12-20T11:33:27.950Z,212.48
2018-12-20T11:34:28.074Z,212.48
2018-12-20T11:35:28.102Z,212.48
2018-12-20T11:36:28.198Z,212.48
2018-12-20T11:37:28.285Z,212.54
2018-12-20T11:38:28.330Z,212.57
2018-12-20T11:39:28.451Z,212.51
2018-12-20T11:40:28.541Z,212.55
2018-12-20T11:41:28.619Z,212.53
2018-12-20T11:42:28.790Z,212.48
2018-12-20T11:43:28.774Z,212.53
2018-12-20T11:44:28.876Z,212.51
2018-12-20T11:45:28.953Z,212.49
2018-12-20T11:46:29.063Z,212.46
2018-12-20T11:47:29.136Z,212.45
2018-12-20T11:48:29.174Z,212.48
2018-12-20T11:49:29.259Z,212.49
2018-12-20T11:50:29.511Z,212.43
2018-12-20T11:51:29.455Z,212.42
2018-12-20T11:52:29.583Z,212.44
2018-12-20T11:53:29.612Z,212.45
2018-12-20T11:54:29.711Z,212.46
2018-12-20T11:55:29.830Z,212.40
2018-12-20T11:56:30.006Z,212.41
2018-12-20T11:57:30.023Z,212.43
2018-12-20T11:58:30.145Z,212.43
2018-12-20T11:59:30.134Z,212.43
2018-12-20T12:00:30.255Z,212.32
2018-12-20T12:01:30.323Z,212.42
2018-12-20T12:02:30.436Z,212.34
2018-12-20T12:03:30.724Z,212.38
2018-12-20T12:04:30.576Z,212.35
2018-12-20T12:05:30.680Z,212.27
2018-12-20T12:06:30.792Z,212.28
2018-12-20T12:07:30.834Z,212.28
2018-12-20T12:08:30.896Z,212.31
2018-12-20T12:09:30.973Z,212.28
2018-12-20T12:10:31.090Z,212.26
2018-12-20T12:11:31.145Z,212.34
2018-12-20T12:12:31.272Z,212.28
2018-12-20T12:13:31.450Z,212.32
2018-12-20T12:14:31.455Z,212.31
2018-12-20T12:15:31.588Z,212.35
2018-12-20T12:16:31.603Z,212.40
2018-12-20T12:17:31.698Z,212.37
2018-12-20T12:18:31.780Z,212.35
2018-12-20T12:19:31.902Z,212.34
2018-12-20T12:20:31.967Z,212.37
2018-12-20T12:21:32.065Z,212.32
2018-12-20T12:22:32.129Z,212.43
2018-12-20T12:23:32.329Z,212.34
2018-12-20T12:24:32.288Z,212.30
2018-12-20T12:25:32.392Z,212.31
2018-12-20T12:26:32.459Z,212.27
2018-12-20T12:27:32.548Z,212.26
2018-12-20T12:28:32.612Z,212.29
2018-12-20T12:29:32.713Z,212.28